Terminal Aerodrome Forecast
Issued by NWS

Home | Current Version | Previous Version | Text Only | Print | Product List | Glossary On
Versions: 1 2 3 4 5 6 7 8 9 10 11 12 13 14 15 16 17
000
FTAK31 PANC 160542
TAFAGK
TAF
PAGK 160542Z 1606/1706 15011KT P6SM VCSH BKN060
     FM161200 17011KT 6SM -SN OVC040
     FM161700 17010KT P6SM VCSH BKN050
     FM162100 17010G17KT P6SM OVC050=

USA.gov is the U.S. government's official web portal to all federal, state and local government web resources and services.